LJLJLOWS [S5-AAP]

Details From LJLJ - Ljubljana
To LOWS - Salzburg Maxglan
Flight Number S5-AAP
Tags Real Commercial Decoded
Created
Modified
Stats Distance 87 nm / 162 km
Max Altitude 0 ft / 0 m
Waypoints 2
Social Downloads 3
Likes 0
Share VATSIM

Download

Looking for another format? Having issues loading an existing format? Contact us
Advertisement - Login to hide

Notes

Decoded

Route

LJLJ RASTA

ID Type Via Altitude Latitude Longitude Leg Dist Tot Dist Heading (true) Name
O LJLJ APT - 0 ft / 0 m 46.23249˚ 14.44039˚ - 0 nm - -
O RASTA FIX - 0 ft / 0 m 47.49543˚ 13.38137˚ 87 nm 87 nm 331° / 330° -

Altitude Profile

Advertisement - Login to hide

LJLJ

Details ICAO LJLJ (LJU)
Name LJUBLJANA
Region Slovenia
Timezone Europe/Ljubljana (UTC+2.0)
Stats Elevation 1,273 ft / 388 m (AMSL)
Location 46.223685° 14.457608°
Runways 1
Magnetic Variation 3.712° E

METAR

LJLJ 251130Z 11005KT 070V150 8000 TSRA FEW033CB BKN045 19/16 Q1017 BECMG NSW

Decode

TAF

TAF LJLJ 250800Z 2509/2609 12005KT 9999 FEW050 TEMPO 2510/2520 SHRA SCT035TCU BKN050 PROB40 TEMPO 2511/2518 VRB10G20KT 5000 TSRA SCT030CB BKN050 BECMG 2519/2522 29003KT PROB30 TEMPO 2602/2607 0800 FG VV001

Decode

Departure Runways

ID Width Length Bearing (true) Bearing (mag) Surface Threshold Offset Overrun Length
13 148 ft / 45 m 10,811 ft / 3,295 m 126.47° 122.76° Asphalt 0 ft / 0 m 0 ft / 0 m
31 148 ft / 45 m 10,811 ft / 3,295 m 306.49° 302.78° Asphalt 0 ft / 0 m 0 ft / 0 m

LOWS

Details ICAO LOWS (SZG)
Name Salzburg Maxglan
Region Austria
Timezone Europe/Vienna (UTC+2.0)
Stats Elevation 1,411 ft / 430 m (AMSL)
Location 47.793333° 13.004333°
Runways 1
Magnetic Variation 3.480° E

METAR

LOWS 251120Z 30005KT 9999 SCT044 FEW050CB 23/13 Q1018 NOSIG

Decode

TAF

TAF LOWS 250515Z 2506/2606 15005KT 9999 FEW020 TX23/2514Z TN13/2604Z BECMG 2507/2509 34006KT FEW040 BECMG 2510/2512 SCT050 FEW060CB TEMPO 2512/2517 29015G25KT 7000 TSRA SCT040CB BKN060 BECMG 2517/2519 15006KT FEW050 SCT080 BKN250

Decode

Destination Runways

ID Width Length Bearing (true) Bearing (mag) Surface Threshold Offset Overrun Length
16 148 ft / 45 m 9,024 ft / 2,751 m 157.08° 153.60° Concrete 656 ft / 200 m 0 ft / 0 m
34 148 ft / 45 m 9,024 ft / 2,751 m 337.09° 333.61° Concrete 787 ft / 240 m 0 ft / 0 m

Approach Navaids

Runway Type Ident Frequency Range Bearing (true) Bearing (mag) Slope Elevation
16 Localiser OES 109.90 MHz 18 nm / 33 km 157.53° 154.05° - 1,411 ft / 430 m (AMSL)
16 Glidescope OES 109.90 MHz 10 nm / 19 km 157.09° 153.60° 3.00° 1,446 ft / 441 m (AMSL)
16 DME OES 109.90 MHz 18 nm / 33 km - - - 1,446 ft / 441 m (AMSL)

Popular Alternatives